createdAt,value
2018-09-22T00:02:18.938Z,70.60
2018-09-22T00:04:50.758Z,71.00
2018-09-22T00:07:22.409Z,70.80
2018-09-22T00:09:54.148Z,70.80
2018-09-22T00:12:26.028Z,70.70
2018-09-22T00:14:57.893Z,71.30
2018-09-22T00:17:29.622Z,70.60
2018-09-22T00:20:01.617Z,70.50
2018-09-22T00:22:33.598Z,70.70
2018-09-22T00:25:05.413Z,69.70
2018-09-22T00:27:37.215Z,70.40
2018-09-22T00:30:09.154Z,69.60
2018-09-22T00:32:40.925Z,69.00
2018-09-22T00:35:12.594Z,68.60
2018-09-22T00:37:44.332Z,68.30
2018-09-22T00:40:16.014Z,68.00
2018-09-22T00:42:47.654Z,66.90
2018-09-22T00:45:19.530Z,67.50
2018-09-22T00:47:51.291Z,66.50
2018-09-22T00:50:23.163Z,65.90
2018-09-22T00:52:55.239Z,66.10
2018-09-22T00:55:27.160Z,66.10
2018-09-22T00:57:58.939Z,66.10
2018-09-22T01:00:30.803Z,66.30
2018-09-22T01:03:02.753Z,66.40
2018-09-22T01:05:34.702Z,66.20
2018-09-22T01:08:06.402Z,65.80
2018-09-22T01:10:38.127Z,65.90
2018-09-22T01:13:09.873Z,66.00
2018-09-22T01:15:41.690Z,65.60
2018-09-22T01:18:13.526Z,65.60
2018-09-22T01:20:45.487Z,66.40
2018-09-22T01:23:17.118Z,65.70
2018-09-22T01:25:48.802Z,65.30
2018-09-22T01:28:20.554Z,65.20
2018-09-22T01:30:52.609Z,65.10
2018-09-22T01:33:24.265Z,65.20
2018-09-22T01:35:56.041Z,65.00
2018-09-22T01:38:27.666Z,65.10
2018-09-22T01:40:59.351Z,64.70
2018-09-22T01:43:31.073Z,65.10
2018-09-22T01:46:02.871Z,65.50
2018-09-22T01:48:34.609Z,65.20
2018-09-22T01:51:06.461Z,65.50
2018-09-22T01:53:38.558Z,65.40
2018-09-22T01:56:10.181Z,65.50
2018-09-22T01:58:41.859Z,66.30
2018-09-22T02:01:13.688Z,65.60
2018-09-22T02:03:45.453Z,66.00
2018-09-22T02:06:17.289Z,66.20
2018-09-22T02:08:49.215Z,66.40
2018-09-22T02:11:20.850Z,67.10
2018-09-22T02:13:52.639Z,67.20
2018-09-22T02:16:24.667Z,66.50
2018-09-22T02:18:56.522Z,66.50
2018-09-22T02:21:28.192Z,66.30
2018-09-22T02:24:00.046Z,66.20
2018-09-22T02:26:31.793Z,66.50
2018-09-22T02:29:03.597Z,66.60
2018-09-22T02:31:35.338Z,66.70
2018-09-22T02:34:07.194Z,67.00
2018-09-22T02:36:38.858Z,66.80
2018-09-22T02:39:11.777Z,67.10
2018-09-22T02:41:43.488Z,67.10
2018-09-22T02:44:15.158Z,67.30
2018-09-22T02:46:47.031Z,67.10
2018-09-22T02:49:18.667Z,67.30
2018-09-22T02:51:50.438Z,67.50
2018-09-22T02:54:22.175Z,67.40
2018-09-22T02:56:54.066Z,67.50
2018-09-22T02:59:25.838Z,67.50
2018-09-22T03:01:57.652Z,67.70
2018-09-22T03:04:29.549Z,68.00
2018-09-22T03:07:01.289Z,68.50
2018-09-22T03:09:33.053Z,68.50
2018-09-22T03:12:04.903Z,68.30
2018-09-22T03:14:36.677Z,68.20
2018-09-22T03:17:08.531Z,68.50
2018-09-22T03:19:40.270Z,68.20
2018-09-22T03:22:12.174Z,68.30
2018-09-22T03:24:44.102Z,68.90
2018-09-22T03:27:15.853Z,68.60
2018-09-22T03:29:47.647Z,68.40
2018-09-22T03:32:19.323Z,68.80
2018-09-22T03:34:51.053Z,69.00
2018-09-22T03:37:22.797Z,68.80
2018-09-22T03:39:54.583Z,68.40
2018-09-22T03:42:26.358Z,68.60
2018-09-22T03:44:58.170Z,68.40
2018-09-22T03:47:29.963Z,68.50
2018-09-22T03:50:01.713Z,68.50
2018-09-22T03:52:33.442Z,68.50
2018-09-22T03:55:05.341Z,68.60
2018-09-22T03:57:36.978Z,68.90
2018-09-22T04:00:09.730Z,68.80
2018-09-22T04:02:41.418Z,68.60
2018-09-22T04:05:13.518Z,68.40
2018-09-22T04:07:45.320Z,68.40
2018-09-22T04:10:17.123Z,68.30
2018-09-22T04:12:48.754Z,68.40
2018-09-22T04:15:20.422Z,68.50
2018-09-22T04:17:52.270Z,68.10
2018-09-22T04:20:25.070Z,68.10
2018-09-22T04:22:56.760Z,68.80
2018-09-22T04:25:28.476Z,68.00
2018-09-22T04:28:00.138Z,67.90
2018-09-22T04:30:31.912Z,68.10
2018-09-22T04:33:03.548Z,67.40
2018-09-22T04:35:35.214Z,68.00
2018-09-22T04:38:06.959Z,67.30
2018-09-22T04:40:38.626Z,67.10
2018-09-22T04:43:10.362Z,67.10
2018-09-22T04:45:42.149Z,67.20
2018-09-22T04:48:13.802Z,67.00
2018-09-22T04:50:45.641Z,67.10
2018-09-22T04:53:17.425Z,67.10
2018-09-22T04:55:49.174Z,67.20
2018-09-22T04:58:20.923Z,67.20
2018-09-22T05:00:52.712Z,67.20
2018-09-22T05:03:24.629Z,66.90
2018-09-22T05:05:56.423Z,66.40
2018-09-22T05:08:28.195Z,66.60
2018-09-22T05:10:59.951Z,66.50
2018-09-22T05:13:31.770Z,66.50
2018-09-22T05:16:03.438Z,67.50
2018-09-22T05:18:35.377Z,65.90
2018-09-22T05:21:07.130Z,66.00
2018-09-22T05:23:39.004Z,66.00
2018-09-22T05:26:10.796Z,66.30
2018-09-22T05:28:42.674Z,66.30
2018-09-22T05:31:14.306Z,66.10
2018-09-22T05:33:46.082Z,66.50
2018-09-22T05:36:17.813Z,66.50
2018-09-22T05:38:49.606Z,66.40
2018-09-22T05:41:21.238Z,66.20
2018-09-22T05:43:53.093Z,66.00
2018-09-22T05:46:24.845Z,65.90
2018-09-22T05:48:56.642Z,65.80
2018-09-22T05:51:28.397Z,66.20
2018-09-22T05:54:00.161Z,66.60
2018-09-22T05:56:31.805Z,66.60
2018-09-22T05:59:03.485Z,65.70
2018-09-22T06:01:35.334Z,65.70
2018-09-22T06:04:07.375Z,65.80
2018-09-22T06:06:39.036Z,65.90
2018-09-22T06:09:11.536Z,65.60
2018-09-22T06:11:43.271Z,65.50
2018-09-22T06:14:15.021Z,64.90
2018-09-22T06:16:46.816Z,64.70
2018-09-22T06:19:18.570Z,64.30
2018-09-22T06:21:50.294Z,64.10
2018-09-22T06:24:21.961Z,65.10
2018-09-22T06:26:53.746Z,64.10
2018-09-22T06:29:25.475Z,64.10
2018-09-22T06:31:57.124Z,64.20
2018-09-22T06:34:28.914Z,64.10
2018-09-22T06:37:00.642Z,63.70
2018-09-22T06:39:32.441Z,63.80
2018-09-22T06:42:04.109Z,63.60
2018-09-22T06:44:35.952Z,63.50
2018-09-22T06:47:07.700Z,63.60
2018-09-22T06:49:39.465Z,64.20
2018-09-22T06:52:11.215Z,62.60
2018-09-22T06:54:43.009Z,63.10
2018-09-22T06:57:14.818Z,63.00
2018-09-22T06:59:46.498Z,62.70
2018-09-22T07:02:18.154Z,62.60
2018-09-22T07:04:50.029Z,62.60
2018-09-22T07:07:21.750Z,63.10
2018-09-22T07:09:53.418Z,62.70
2018-09-22T07:12:25.167Z,62.10
2018-09-22T07:14:57.060Z,62.40
2018-09-22T07:17:28.800Z,62.60
2018-09-22T07:20:00.650Z,61.80
2018-09-22T07:22:37.082Z,61.50
2018-09-22T07:25:08.964Z,61.90
2018-09-22T07:27:40.733Z,61.70
2018-09-22T07:30:12.702Z,61.30
2018-09-22T07:32:44.494Z,60.60
2018-09-22T07:35:16.297Z,60.30
2018-09-22T07:37:48.177Z,60.10
2018-09-22T07:40:19.975Z,59.60
2018-09-22T07:42:51.607Z,60.00
2018-09-22T07:45:23.649Z,60.10
2018-09-22T07:47:55.523Z,60.90
2018-09-22T07:50:27.281Z,60.00
2018-09-22T07:52:58.950Z,59.80
2018-09-22T07:55:30.844Z,59.30
2018-09-22T07:58:02.770Z,59.20
2018-09-22T08:00:34.480Z,59.20
2018-09-22T08:03:06.446Z,59.00
2018-09-22T08:05:38.257Z,59.00
2018-09-22T08:08:10.218Z,58.60
2018-09-22T08:10:41.893Z,59.00
2018-09-22T08:13:13.620Z,59.00
2018-09-22T08:15:45.305Z,58.30
2018-09-22T08:18:16.960Z,57.70
2018-09-22T08:20:48.606Z,57.60
2018-09-22T08:23:20.371Z,57.40
2018-09-22T08:25:52.217Z,57.30
2018-09-22T08:28:24.153Z,57.90
2018-09-22T08:30:55.854Z,57.80
2018-09-22T08:33:27.593Z,57.30
2018-09-22T08:35:59.360Z,56.60
2018-09-22T08:38:31.029Z,57.40
2018-09-22T08:41:02.885Z,57.30
2018-09-22T08:43:34.551Z,56.40
2018-09-22T08:46:06.358Z,56.10
2018-09-22T08:48:38.052Z,56.20
2018-09-22T08:51:09.737Z,55.50
2018-09-22T08:53:41.462Z,55.60
2018-09-22T08:56:13.232Z,55.30
2018-09-22T08:58:44.893Z,55.50
2018-09-22T09:01:16.635Z,55.20
2018-09-22T09:03:48.610Z,55.20
2018-09-22T09:06:20.600Z,55.30
2018-09-22T09:08:52.333Z,55.10
2018-09-22T09:11:23.993Z,54.90
2018-09-22T09:13:55.795Z,54.30
2018-09-22T09:16:27.510Z,54.10
2018-09-22T09:18:59.219Z,54.60
2018-09-22T09:21:30.921Z,54.60
2018-09-22T09:24:02.587Z,54.30
2018-09-22T09:26:34.339Z,53.80
2018-09-22T09:29:06.096Z,53.60
2018-09-22T09:31:37.762Z,53.80
2018-09-22T09:34:09.755Z,52.30
2018-09-22T09:36:41.473Z,52.40
2018-09-22T09:39:13.151Z,51.50
2018-09-22T09:41:44.981Z,51.60
2018-09-22T09:44:16.776Z,51.60
2018-09-22T09:46:48.400Z,51.40
2018-09-22T09:49:20.074Z,51.80
2018-09-22T09:51:51.848Z,51.20
2018-09-22T09:54:23.618Z,51.20
2018-09-22T09:56:55.470Z,51.00
2018-09-22T09:59:27.343Z,50.50
2018-09-22T10:01:59.359Z,50.50
2018-09-22T10:04:31.291Z,51.10
2018-09-22T10:07:02.953Z,50.90
2018-09-22T10:09:34.898Z,51.10
2018-09-22T10:12:06.671Z,51.20
2018-09-22T10:14:38.375Z,51.40
2018-09-22T10:17:10.227Z,51.30
2018-09-22T10:19:42.102Z,51.40
2018-09-22T10:22:13.846Z,51.30
2018-09-22T10:24:45.606Z,51.40
2018-09-22T10:27:17.281Z,51.50
2018-09-22T10:29:49.023Z,51.50
2018-09-22T10:32:20.682Z,51.70
2018-09-22T10:34:52.347Z,51.10
2018-09-22T10:37:24.089Z,50.80
2018-09-22T10:39:55.876Z,50.90
2018-09-22T10:42:27.483Z,51.00
2018-09-22T10:44:59.285Z,50.00
2018-09-22T10:47:30.933Z,49.80
2018-09-22T10:50:02.682Z,49.60
2018-09-22T10:52:34.350Z,49.70
2018-09-22T10:55:06.328Z,49.80
2018-09-22T10:57:38.072Z,49.30
2018-09-22T11:00:09.849Z,49.90
2018-09-22T11:02:41.613Z,49.20
2018-09-22T11:05:13.445Z,48.90
2018-09-22T11:07:45.095Z,48.70
2018-09-22T11:10:16.883Z,48.00
2018-09-22T11:12:48.611Z,47.90
2018-09-22T11:15:20.609Z,47.90
2018-09-22T11:17:52.246Z,47.90
2018-09-22T11:20:24.091Z,49.40
2018-09-22T11:22:55.962Z,48.80
2018-09-22T11:25:27.608Z,49.30
2018-09-22T11:27:59.293Z,49.10
2018-09-22T11:30:31.026Z,48.90
2018-09-22T11:33:02.689Z,49.00
2018-09-22T11:35:34.546Z,49.30
2018-09-22T11:38:06.509Z,49.20
2018-09-22T11:40:38.199Z,49.10
2018-09-22T11:43:09.944Z,49.00
2018-09-22T11:45:41.683Z,49.50
2018-09-22T11:48:13.546Z,48.50
2018-09-22T11:50:45.222Z,48.50
2018-09-22T11:53:17.067Z,48.60
2018-09-22T11:55:48.819Z,48.70
2018-09-22T11:58:20.522Z,48.10
2018-09-22T12:00:52.314Z,48.30
2018-09-22T12:03:24.233Z,48.30
2018-09-22T12:05:56.011Z,48.60
2018-09-22T12:08:27.841Z,48.40
2018-09-22T12:10:59.694Z,48.80
2018-09-22T12:13:31.575Z,47.80
2018-09-22T12:16:03.218Z,47.10
2018-09-22T12:18:34.963Z,46.30
2018-09-22T12:21:06.738Z,45.00
2018-09-22T12:23:38.421Z,44.90
2018-09-22T12:26:10.478Z,45.10
2018-09-22T12:28:42.119Z,44.10
2018-09-22T12:31:13.769Z,43.50
2018-09-22T12:33:45.545Z,44.30
2018-09-22T12:36:17.181Z,44.60
2018-09-22T12:38:49.550Z,45.10
2018-09-22T12:41:21.223Z,45.00
2018-09-22T12:43:52.961Z,45.20
2018-09-22T12:46:24.665Z,44.90
2018-09-22T12:48:56.400Z,45.30
2018-09-22T12:51:28.267Z,45.30
2018-09-22T12:53:59.896Z,44.70
2018-09-22T12:56:31.868Z,44.10
2018-09-22T12:59:03.746Z,43.10
2018-09-22T13:01:35.609Z,43.20
2018-09-22T13:04:07.494Z,42.90
2018-09-22T13:06:39.318Z,42.50
2018-09-22T13:09:11.994Z,42.80
2018-09-22T13:11:43.757Z,43.10
2018-09-22T13:14:15.559Z,43.40
2018-09-22T13:16:47.268Z,43.70
2018-09-22T13:19:18.884Z,44.20
2018-09-22T13:21:50.704Z,44.30
2018-09-22T13:24:22.415Z,44.90
2018-09-22T13:26:54.443Z,45.50
2018-09-22T13:29:26.105Z,44.80
2018-09-22T13:31:57.809Z,44.20
2018-09-22T13:34:29.727Z,44.50
2018-09-22T13:37:01.680Z,44.10
2018-09-22T13:39:33.427Z,43.60
2018-09-22T13:42:05.185Z,43.50
2018-09-22T13:44:36.906Z,43.10
2018-09-22T13:47:08.685Z,42.30
2018-09-22T13:49:40.451Z,42.60
2018-09-22T13:52:12.298Z,42.60
2018-09-22T13:54:44.072Z,42.00
2018-09-22T13:57:15.721Z,42.10
2018-09-22T13:59:47.474Z,42.10
2018-09-22T14:02:19.130Z,40.90
2018-09-22T14:04:50.896Z,41.20
2018-09-22T14:07:22.745Z,41.60
2018-09-22T14:09:54.505Z,42.10
2018-09-22T14:12:26.399Z,41.90
2018-09-22T14:14:58.136Z,42.20
2018-09-22T14:17:30.089Z,41.90
2018-09-22T14:20:01.749Z,41.60
2018-09-22T14:22:33.625Z,41.70
2018-09-22T14:25:05.378Z,39.90
2018-09-22T14:27:37.143Z,40.60
2018-09-22T14:30:09.118Z,40.60
2018-09-22T14:32:40.866Z,41.10
2018-09-22T14:35:12.805Z,41.30
2018-09-22T14:37:44.664Z,40.30
2018-09-22T14:40:16.356Z,40.70
2018-09-22T14:42:48.005Z,40.40
2018-09-22T14:45:19.978Z,40.30
2018-09-22T14:47:51.622Z,39.30
2018-09-22T14:50:23.280Z,39.70
2018-09-22T14:52:55.005Z,39.50
2018-09-22T14:55:26.694Z,39.50
2018-09-22T14:57:58.558Z,39.50
2018-09-22T15:00:30.328Z,38.50
2018-09-22T15:03:02.085Z,39.40
2018-09-22T15:05:33.833Z,40.10
2018-09-22T15:08:05.880Z,39.80
2018-09-22T15:10:37.670Z,39.80
2018-09-22T15:13:09.380Z,38.80
2018-09-22T15:15:41.150Z,40.40
2018-09-22T15:18:12.821Z,40.30
2018-09-22T15:20:44.590Z,40.50
2018-09-22T15:23:16.240Z,40.10
2018-09-22T15:25:47.913Z,39.80
2018-09-22T15:28:19.781Z,39.00
2018-09-22T15:30:51.408Z,38.10
2018-09-22T15:33:23.174Z,37.90
2018-09-22T15:35:54.929Z,37.80
2018-09-22T15:38:26.586Z,37.20
2018-09-22T15:40:58.334Z,37.40
2018-09-22T15:43:30.008Z,38.50
2018-09-22T15:46:01.878Z,38.20
2018-09-22T15:48:33.669Z,38.80
2018-09-22T15:51:05.283Z,37.80
2018-09-22T15:53:37.088Z,38.90
2018-09-22T15:56:09.049Z,38.90
2018-09-22T15:58:40.885Z,39.20
2018-09-22T16:01:12.725Z,39.50
2018-09-22T16:03:44.486Z,39.30
2018-09-22T16:06:16.450Z,39.20
2018-09-22T16:08:48.335Z,38.90
2018-09-22T16:11:20.161Z,38.90
2018-09-22T16:13:51.961Z,39.10
2018-09-22T16:16:23.697Z,38.80
2018-09-22T16:18:55.434Z,38.70
2018-09-22T16:21:27.094Z,38.70
2018-09-22T16:23:58.866Z,38.40
2018-09-22T16:26:30.756Z,38.20
2018-09-22T16:29:02.468Z,38.40
2018-09-22T16:31:34.258Z,38.30
2018-09-22T16:34:06.020Z,38.00
2018-09-22T16:36:37.649Z,37.90
2018-09-22T16:39:10.986Z,38.30
2018-09-22T16:41:42.633Z,37.60
2018-09-22T16:44:14.379Z,37.90
2018-09-22T16:46:46.105Z,37.90
2018-09-22T16:49:17.887Z,38.10
2018-09-22T16:51:49.665Z,38.20
2018-09-22T16:54:21.300Z,37.90
2018-09-22T16:56:53.120Z,38.20
2018-09-22T16:59:24.941Z,38.00
2018-09-22T17:01:56.703Z,38.20
2018-09-22T17:04:28.522Z,37.90
2018-09-22T17:07:00.186Z,38.70
2018-09-22T17:09:31.868Z,39.30
2018-09-22T17:12:03.714Z,38.90
2018-09-22T17:14:35.496Z,38.80
2018-09-22T17:17:07.258Z,38.80
2018-09-22T17:19:39.085Z,39.50
2018-09-22T17:22:10.954Z,39.60
2018-09-22T17:24:42.735Z,39.60
2018-09-22T17:27:14.381Z,39.80
2018-09-22T17:29:46.125Z,40.60
2018-09-22T17:32:17.913Z,40.30
2018-09-22T17:34:49.603Z,40.40
2018-09-22T17:37:21.733Z,40.30
2018-09-22T17:39:53.697Z,40.40
2018-09-22T17:42:25.356Z,40.50
2018-09-22T17:44:56.993Z,40.50
2018-09-22T17:47:28.874Z,40.40
2018-09-22T17:50:00.516Z,40.60
2018-09-22T17:52:32.170Z,41.10
2018-09-22T17:55:03.957Z,40.80
2018-09-22T17:57:35.688Z,41.00
2018-09-22T18:00:07.578Z,41.30
2018-09-22T18:02:39.397Z,41.40
2018-09-22T18:05:11.390Z,41.40
2018-09-22T18:07:43.041Z,41.70
2018-09-22T18:10:14.820Z,42.60
2018-09-22T18:12:46.671Z,41.90
2018-09-22T18:15:18.303Z,41.90
2018-09-22T18:17:49.956Z,42.00
2018-09-22T18:20:21.617Z,42.00
2018-09-22T18:22:53.551Z,42.00
2018-09-22T18:25:25.430Z,42.10
2018-09-22T18:27:57.214Z,42.40
2018-09-22T18:30:29.085Z,42.30
2018-09-22T18:33:00.923Z,42.30
2018-09-22T18:35:32.805Z,42.60
2018-09-22T18:38:04.442Z,42.80
2018-09-22T18:40:36.104Z,42.60
2018-09-22T18:43:07.945Z,43.10
2018-09-22T18:45:39.734Z,43.20
2018-09-22T18:48:11.385Z,43.50
2018-09-22T18:50:43.124Z,43.30
2018-09-22T18:53:14.876Z,43.40
2018-09-22T18:55:46.657Z,43.60
2018-09-22T18:58:18.391Z,44.60
2018-09-22T19:00:50.120Z,45.70
2018-09-22T19:03:21.917Z,47.10
2018-09-22T19:05:53.619Z,48.20
2018-09-22T19:08:25.454Z,49.50
2018-09-22T19:10:57.225Z,50.30
2018-09-22T19:13:33.405Z,50.50
2018-09-22T19:16:08.796Z,50.10
2018-09-22T19:18:46.519Z,51.10
2018-09-22T19:21:38.770Z,50.80
2018-09-22T19:24:15.605Z,51.00
2018-09-22T19:26:51.970Z,51.70
2018-09-22T19:29:30.081Z,51.40
2018-09-22T19:32:06.183Z,51.60
2018-09-22T19:34:51.362Z,51.60
2018-09-22T19:37:29.939Z,52.70
2018-09-22T19:41:05.019Z,52.60
2018-09-22T19:43:41.862Z,52.80
2018-09-22T19:46:17.614Z,53.20
2018-09-22T19:48:54.916Z,53.00
2018-09-22T19:51:28.757Z,53.00
2018-09-22T19:54:01.403Z,53.40
2018-09-22T19:56:33.058Z,53.50
2018-09-22T19:59:04.823Z,53.10
2018-09-22T20:01:36.602Z,52.80
2018-09-22T20:04:08.343Z,52.80
2018-09-22T20:06:40.176Z,52.80
2018-09-22T20:09:11.957Z,52.90
2018-09-22T20:11:43.668Z,52.40
2018-09-22T20:14:15.417Z,52.00
2018-09-22T20:16:47.323Z,51.50
2018-09-22T20:19:19.324Z,51.30
2018-09-22T20:21:51.179Z,50.60
2018-09-22T20:24:22.938Z,50.30
2018-09-22T20:26:54.681Z,49.90
2018-09-22T20:29:26.428Z,49.40
2018-09-22T20:31:58.206Z,49.30
2018-09-22T20:34:30.051Z,49.30
2018-09-22T20:37:01.813Z,49.00
2018-09-22T20:39:33.523Z,48.70
2018-09-22T20:42:05.258Z,48.60
2018-09-22T20:44:37.006Z,48.40
2018-09-22T20:47:08.757Z,48.80
2018-09-22T20:49:40.397Z,48.20
2018-09-22T20:52:12.067Z,48.20
2018-09-22T20:54:43.725Z,48.10
2018-09-22T20:57:15.606Z,48.10
2018-09-22T20:59:47.246Z,48.20
2018-09-22T21:02:19.131Z,48.90
2018-09-22T21:04:50.983Z,48.40
2018-09-22T21:07:22.674Z,48.50
2018-09-22T21:09:54.465Z,48.60
2018-09-22T21:12:26.360Z,48.60
2018-09-22T21:14:58.039Z,48.60
2018-09-22T21:17:29.749Z,48.60
2018-09-22T21:20:01.508Z,48.80
2018-09-22T21:22:33.194Z,49.20
2018-09-22T21:25:05.036Z,49.20
2018-09-22T21:27:36.806Z,49.20
2018-09-22T21:30:08.549Z,49.20
2018-09-22T21:32:40.308Z,49.40
2018-09-22T21:35:11.969Z,49.20
2018-09-22T21:37:43.733Z,49.40
2018-09-22T21:40:15.673Z,49.50
2018-09-22T21:42:47.470Z,49.60
2018-09-22T21:45:19.111Z,49.30
2018-09-22T21:47:50.869Z,50.40
2018-09-22T21:50:22.720Z,50.30
2018-09-22T21:52:54.365Z,50.20
2018-09-22T21:55:26.162Z,50.10
2018-09-22T21:57:58.022Z,49.90
2018-09-22T22:00:29.988Z,50.20
2018-09-22T22:03:01.742Z,50.10
2018-09-22T22:05:33.575Z,50.70
2018-09-22T22:08:05.257Z,50.20
2018-09-22T22:10:37.104Z,50.50
2018-09-22T22:13:08.887Z,50.40
2018-09-22T22:15:40.770Z,50.80
2018-09-22T22:18:12.591Z,50.80
2018-09-22T22:20:44.430Z,51.30
2018-09-22T22:23:16.200Z,51.70
2018-09-22T22:25:47.890Z,51.70
2018-09-22T22:28:19.729Z,52.20
2018-09-22T22:30:51.468Z,52.20
2018-09-22T22:33:23.240Z,52.40
2018-09-22T22:35:54.985Z,53.80
2018-09-22T22:38:26.693Z,55.40
2018-09-22T22:40:58.478Z,56.30
2018-09-22T22:43:30.483Z,57.50
2018-09-22T22:46:02.156Z,58.90
2018-09-22T22:48:34.109Z,61.50
2018-09-22T22:51:06.244Z,59.00
2018-09-22T22:53:37.932Z,58.50
2018-09-22T22:56:09.745Z,59.40
2018-09-22T22:58:41.449Z,59.20
2018-09-22T23:01:13.302Z,60.10
2018-09-22T23:03:44.952Z,61.10
2018-09-22T23:06:16.933Z,60.60
2018-09-22T23:08:48.694Z,60.10
2018-09-22T23:11:20.354Z,59.90
2018-09-22T23:13:52.224Z,60.50
2018-09-22T23:16:24.068Z,60.60
2018-09-22T23:18:55.810Z,61.30
2018-09-22T23:21:27.576Z,60.50
2018-09-22T23:23:59.242Z,60.10
2018-09-22T23:26:31.088Z,60.20
2018-09-22T23:29:02.788Z,59.70
2018-09-22T23:31:34.537Z,59.70
2018-09-22T23:34:06.486Z,59.60
2018-09-22T23:36:38.349Z,59.30
2018-09-22T23:39:11.894Z,59.20
2018-09-22T23:41:44.011Z,58.80
2018-09-22T23:44:15.887Z,58.60
2018-09-22T23:46:47.721Z,58.70
2018-09-22T23:49:19.581Z,59.50
2018-09-22T23:51:51.377Z,59.50
2018-09-22T23:54:23.213Z,60.20
2018-09-22T23:56:54.958Z,60.40
2018-09-22T23:59:26.747Z,61.20
